Aeroporto :
LOGIN :

Iscrizione | Disclaimer

   EN    FR    IT 

 










Sommario :    VFR   VFR Marginale   IFR   IFR Intensivo   IFR Molto Intensivo
Visibilità : 
Base nubi : 
>= 8 km
>= 3000ft
5 / 8 km
1000 / 3000 ft
1500m / 5 km
500 / 1000 ft
800 / 1500m
200 / 500 ft
< 800m
< 200 ft
Simboli :   Temporali  Nebbia  Neve Forte  Precipitazioni Forti  Vento > 20 kt
SIGMETs :   Varie  Temporali  Ghiacco  Turbolenza  Onda orograficha  Ceneri Vulcaniche






- Altitudine del aeroporto : 235 ft
- Codice IATA : BZG


EPBY - Bydgoszcz

ULTIMO METAR :
  • 270500Z VRB02KT 0350 0250W R26/1800D FG VV001 08/07 Q1032

METARs OBSOLETI :
  • 270430Z VRB02KT 0250 0200W R26/0750U FG VV001 07/07 Q1032
  • 270400Z VRB02KT 0150 0100W R26/0400N FG VV001 07/07 Q1032
  • 270330Z 36003KT 320V030 0250 R26/0600N FG VV001 07/07 Q1032
  • 270300Z 04004KT 360V060 0200 0150W R26/0550N FG VV001 07/07 Q1032
  • 270230Z 02003KT 320V090 0150 0100W R26/0325N FG VV001 07/07 Q1032

TAF AMD TAF EPBY
Valido dal 27 a 02 ore il 28 a 00 ore UTC


270220Z 2702/2724 VRB02KT 0300 FG OVC001
PROB40
TEMPO 2702/2706 0800 FG BKN004
BECMG 2706/2709 9999 NSW SCT030



MetMap, La meteo Aeronautica in un colpo d'occhio ! - Copyright ORBIFLY Dicembre 2007 - Disclaimer

ORBIFLY MET'MAP TEAM :

Programmazione e sviluppo : Alexandra Zaïnal
Concezione : Baudouin d'Aumeries
Aiuto per la programmazione : Marc-Olivier Méhu
Supporto tecnico e logistico : Manuel Goepfert
Aiuto per la traduzione : Arnaldo La Scala

Contatto : metmap@orbifly.com




FONTI E CREDITI :

   NOAA